createdAt,value
2018-11-01T00:00:43.938Z,1006.42
2018-11-01T00:01:42.793Z,1006.36
2018-11-01T00:02:42.227Z,1006.41
2018-11-01T00:03:42.791Z,1006.40
2018-11-01T00:04:42.239Z,1006.36
2018-11-01T00:05:42.646Z,1006.35
2018-11-01T00:06:42.253Z,1006.33
2018-11-01T00:07:44.817Z,1006.34
2018-11-01T00:08:42.202Z,1006.37
2018-11-01T00:09:44.258Z,1006.32
2018-11-01T00:10:42.504Z,1006.32
2018-11-01T00:11:42.188Z,1006.31
2018-11-01T00:12:43.002Z,1006.34
2018-11-01T00:13:42.402Z,1006.28
2018-11-01T00:14:42.440Z,1006.20
2018-11-01T00:15:44.336Z,1006.28
2018-11-01T00:16:44.379Z,1006.27
2018-11-01T00:17:42.430Z,1006.26
2018-11-01T00:18:44.342Z,1006.28
2018-11-01T00:19:44.815Z,1006.30
2018-11-01T00:20:42.831Z,1006.24
2018-11-01T00:21:43.416Z,1006.22
2018-11-01T00:22:42.626Z,1006.14
2018-11-01T00:23:42.075Z,1006.15
2018-11-01T00:24:42.070Z,1006.14
2018-11-01T00:25:42.335Z,1006.12
2018-11-01T00:26:42.345Z,1006.13
2018-11-01T00:27:42.621Z,1006.13
2018-11-01T00:28:42.348Z,1006.10
2018-11-01T00:29:42.401Z,1006.07
2018-11-01T00:30:44.899Z,1006.07
2018-11-01T00:31:42.515Z,1006.12
2018-11-01T00:32:42.560Z,1006.12
2018-11-01T00:33:42.460Z,1006.14
2018-11-01T00:34:42.427Z,1006.11
2018-11-01T00:35:42.352Z,1006.11
2018-11-01T00:36:43.084Z,1006.16
2018-11-01T00:37:42.701Z,1006.16
2018-11-01T00:38:43.204Z,1006.19
2018-11-01T00:39:42.148Z,1006.17
2018-11-01T00:40:42.649Z,1006.18
2018-11-01T00:41:42.487Z,1006.18
2018-11-01T00:42:42.735Z,1006.18
2018-11-01T00:43:42.756Z,1006.20
2018-11-01T00:44:42.925Z,1006.20
2018-11-01T00:45:42.285Z,1006.18
2018-11-01T00:46:42.674Z,1006.18
2018-11-01T00:47:43.031Z,1006.13
2018-11-01T00:48:42.515Z,1006.11
2018-11-01T00:49:43.036Z,1006.09
2018-11-01T00:50:42.632Z,1006.03
2018-11-01T00:51:43.017Z,1006.09
2018-11-01T00:52:42.761Z,1006.09
2018-11-01T00:53:43.032Z,1006.07
2018-11-01T00:54:41.979Z,1006.02
2018-11-01T00:55:42.315Z,1006.06
2018-11-01T00:56:42.338Z,1006.13
2018-11-01T00:57:42.237Z,1006.10
2018-11-01T00:58:42.793Z,1006.16
2018-11-01T00:59:42.169Z,1006.18
2018-11-01T01:00:42.672Z,1006.19
2018-11-01T01:01:42.686Z,1006.22
2018-11-01T01:02:42.664Z,1006.20
2018-11-01T01:03:42.667Z,1006.24
2018-11-01T01:04:44.831Z,1006.17
2018-11-01T01:05:42.792Z,1006.12
2018-11-01T01:06:42.814Z,1006.07
2018-11-01T01:07:42.765Z,1006.09
2018-11-01T01:08:42.840Z,1006.09
2018-11-01T01:09:42.475Z,1006.11
2018-11-01T01:10:42.499Z,1006.10
2018-11-01T01:11:42.319Z,1006.06
2018-11-01T01:12:42.472Z,1006.09
2018-11-01T01:13:42.836Z,1006.13
2018-11-01T01:14:42.394Z,1006.10
2018-11-01T01:15:42.459Z,1006.15
2018-11-01T01:16:42.353Z,1006.14
2018-11-01T01:17:42.415Z,1006.10
2018-11-01T01:18:42.110Z,1006.08
2018-11-01T01:19:42.886Z,1006.05
2018-11-01T01:20:42.230Z,1006.04
2018-11-01T01:21:42.524Z,1005.99
2018-11-01T01:22:42.711Z,1005.97
2018-11-01T01:23:42.620Z,1005.99
2018-11-01T01:24:42.494Z,1005.95
2018-11-01T01:25:42.482Z,1005.92
2018-11-01T01:26:42.828Z,1005.94
2018-11-01T01:27:42.014Z,1005.88
2018-11-01T01:28:42.399Z,1005.86
2018-11-01T01:29:42.565Z,1005.85
2018-11-01T01:30:42.484Z,1005.83
2018-11-01T01:31:42.414Z,1005.93
2018-11-01T01:32:42.506Z,1005.87
2018-11-01T01:33:42.510Z,1005.89
2018-11-01T01:34:42.593Z,1005.91
2018-11-01T01:35:42.761Z,1005.86
2018-11-01T01:36:43.040Z,1005.84
2018-11-01T01:37:42.282Z,1005.83
2018-11-01T01:38:42.333Z,1005.86
2018-11-01T01:39:42.832Z,1005.83
2018-11-01T01:40:42.981Z,1005.80
2018-11-01T01:41:42.407Z,1005.80
2018-11-01T01:42:42.662Z,1005.79
2018-11-01T01:43:42.019Z,1005.83
2018-11-01T01:44:42.603Z,1005.82
2018-11-01T01:45:43.104Z,1005.79
2018-11-01T01:46:42.402Z,1005.78
2018-11-01T01:47:42.763Z,1005.76
2018-11-01T01:48:42.980Z,1005.76
2018-11-01T01:49:42.520Z,1005.81
2018-11-01T01:50:42.074Z,1005.82
2018-11-01T01:51:42.836Z,1005.81
2018-11-01T01:52:42.519Z,1005.74
2018-11-01T01:53:42.461Z,1005.73
2018-11-01T01:54:42.789Z,1005.74
2018-11-01T01:55:42.349Z,1005.75
2018-11-01T01:56:42.357Z,1005.76
2018-11-01T01:57:42.397Z,1005.81
2018-11-01T01:58:42.626Z,1005.75
2018-11-01T01:59:41.856Z,1005.85
2018-11-01T02:00:42.839Z,1005.84
2018-11-01T02:01:41.895Z,1005.82
2018-11-01T02:02:42.382Z,1005.83
2018-11-01T02:03:42.397Z,1005.81
2018-11-01T02:04:42.342Z,1005.83
2018-11-01T02:05:42.852Z,1005.81
2018-11-01T02:06:42.347Z,1005.77
2018-11-01T02:07:42.431Z,1005.79
2018-11-01T02:08:42.425Z,1005.76
2018-11-01T02:09:42.402Z,1005.74
2018-11-01T02:10:42.413Z,1005.74
2018-11-01T02:11:42.446Z,1005.71
2018-11-01T02:12:42.379Z,1005.71
2018-11-01T02:13:42.380Z,1005.68
2018-11-01T02:14:42.440Z,1005.70
2018-11-01T02:15:42.388Z,1005.64
2018-11-01T02:16:42.743Z,1005.67
2018-11-01T02:17:41.910Z,1005.64
2018-11-01T02:18:42.850Z,1005.65
2018-11-01T02:19:42.479Z,1005.61
2018-11-01T02:20:42.848Z,1005.60
2018-11-01T02:21:44.552Z,1005.55
2018-11-01T02:22:42.413Z,1005.57
2018-11-01T02:23:44.024Z,1005.52
2018-11-01T02:24:43.926Z,1005.55
2018-11-01T02:25:41.916Z,1005.52
2018-11-01T02:26:43.980Z,1005.50
2018-11-01T02:27:43.861Z,1005.53
2018-11-01T02:28:43.953Z,1005.48
2018-11-01T02:29:43.860Z,1005.51
2018-11-01T02:30:43.955Z,1005.48
2018-11-01T02:31:43.962Z,1005.49
2018-11-01T02:32:44.273Z,1005.47
2018-11-01T02:33:44.383Z,1005.51
2018-11-01T02:34:44.021Z,1005.47
2018-11-01T02:35:43.885Z,1005.48
2018-11-01T02:36:44.008Z,1005.52
2018-11-01T02:37:44.037Z,1005.53
2018-11-01T02:38:44.015Z,1005.53
2018-11-01T02:39:42.389Z,1005.52
2018-11-01T02:40:44.003Z,1005.52
2018-11-01T02:41:41.818Z,1005.48
2018-11-01T02:42:42.298Z,1005.48
2018-11-01T02:43:42.380Z,1005.49
2018-11-01T02:44:42.463Z,1005.48
2018-11-01T02:45:42.481Z,1005.53
2018-11-01T02:46:42.308Z,1005.53
2018-11-01T02:47:42.178Z,1005.52
2018-11-01T02:48:42.462Z,1005.47
2018-11-01T02:49:42.392Z,1005.52
2018-11-01T02:50:42.346Z,1005.52
2018-11-01T02:51:42.254Z,1005.54
2018-11-01T02:52:42.186Z,1005.50
2018-11-01T02:53:42.311Z,1005.48
2018-11-01T02:54:42.402Z,1005.45
2018-11-01T02:55:42.329Z,1005.41
2018-11-01T02:56:41.784Z,1005.44
2018-11-01T02:57:42.431Z,1005.37
2018-11-01T02:58:42.438Z,1005.33
2018-11-01T02:59:41.853Z,1005.34
2018-11-01T03:00:42.322Z,1005.31
2018-11-01T03:01:41.709Z,1005.26
2018-11-01T03:02:42.593Z,1005.26
2018-11-01T03:03:42.529Z,1005.28
2018-11-01T03:04:42.200Z,1005.26
2018-11-01T03:05:42.164Z,1005.18
2018-11-01T03:06:41.918Z,1005.19
2018-11-01T03:07:42.442Z,1005.19
2018-11-01T03:08:42.506Z,1005.18
2018-11-01T03:09:42.311Z,1005.19
2018-11-01T03:10:42.341Z,1005.15
2018-11-01T03:11:42.411Z,1005.11
2018-11-01T03:12:42.403Z,1005.10
2018-11-01T03:13:42.341Z,1005.05
2018-11-01T03:14:42.401Z,1005.04
2018-11-01T03:15:42.283Z,1005.03
2018-11-01T03:16:42.471Z,1005.02
2018-11-01T03:17:42.157Z,1005.02
2018-11-01T03:18:42.345Z,1005.05
2018-11-01T03:19:42.320Z,1005.04
2018-11-01T03:20:41.762Z,1005.06
2018-11-01T03:21:42.541Z,1005.01
2018-11-01T03:22:41.793Z,1005.05
2018-11-01T03:23:42.321Z,1005.06
2018-11-01T03:24:41.975Z,1005.02
2018-11-01T03:25:42.549Z,1005.05
2018-11-01T03:26:42.481Z,1005.07
2018-11-01T03:27:42.024Z,1005.06
2018-11-01T03:28:42.083Z,1005.03
2018-11-01T03:29:41.651Z,1004.95
2018-11-01T03:30:42.039Z,1004.96
2018-11-01T03:31:41.906Z,1004.91
2018-11-01T03:32:41.967Z,1004.94
2018-11-01T03:33:42.012Z,1004.93
2018-11-01T03:34:42.189Z,1004.94
2018-11-01T03:35:41.716Z,1004.97
2018-11-01T03:36:42.487Z,1004.98
2018-11-01T03:37:42.440Z,1004.99
2018-11-01T03:38:42.230Z,1005.00
2018-11-01T03:39:42.058Z,1004.97
2018-11-01T03:40:42.174Z,1004.98
2018-11-01T03:41:41.660Z,1004.97
2018-11-01T03:42:42.033Z,1004.99
2018-11-01T03:43:42.424Z,1005.02
2018-11-01T03:44:42.130Z,1004.97
2018-11-01T03:45:42.517Z,1004.97
2018-11-01T03:46:42.355Z,1004.93
2018-11-01T03:47:42.159Z,1004.95
2018-11-01T03:48:41.952Z,1004.93
2018-11-01T03:49:41.939Z,1004.91
2018-11-01T03:50:42.078Z,1004.88
2018-11-01T03:51:41.939Z,1004.88
2018-11-01T03:52:41.919Z,1004.87
2018-11-01T03:53:41.981Z,1004.84
2018-11-01T03:54:41.883Z,1004.83
2018-11-01T03:55:41.950Z,1004.80
2018-11-01T03:56:42.007Z,1004.78
2018-11-01T03:57:41.951Z,1004.75
2018-11-01T03:58:41.923Z,1004.73
2018-11-01T03:59:41.967Z,1004.72
2018-11-01T04:00:42.334Z,1004.66
2018-11-01T04:01:42.062Z,1004.68
2018-11-01T04:02:42.055Z,1004.67
2018-11-01T04:03:42.303Z,1004.65
2018-11-01T04:04:42.439Z,1004.62
2018-11-01T04:05:42.021Z,1004.60
2018-11-01T04:06:42.041Z,1004.60
2018-11-01T04:07:41.793Z,1004.59
2018-11-01T04:08:42.250Z,1004.66
2018-11-01T04:09:42.503Z,1004.74
2018-11-01T04:10:41.526Z,1004.75
2018-11-01T04:11:41.969Z,1004.75
2018-11-01T04:12:41.965Z,1004.79
2018-11-01T04:13:42.057Z,1004.85
2018-11-01T04:14:42.000Z,1004.83
2018-11-01T04:15:41.956Z,1004.83
2018-11-01T04:16:42.029Z,1004.79
2018-11-01T04:17:41.950Z,1004.75
2018-11-01T04:18:41.981Z,1004.63
2018-11-01T04:19:41.965Z,1004.66
2018-11-01T04:20:42.393Z,1004.63
2018-11-01T04:21:41.511Z,1004.62
2018-11-01T04:22:41.873Z,1004.59
2018-11-01T04:23:42.352Z,1004.63
2018-11-01T04:24:41.503Z,1004.65
2018-11-01T04:25:42.013Z,1004.69
2018-11-01T04:26:41.952Z,1004.63
2018-11-01T04:27:41.911Z,1004.64
2018-11-01T04:28:41.989Z,1004.61
2018-11-01T04:29:42.374Z,1004.56
2018-11-01T04:30:41.442Z,1004.54
2018-11-01T04:31:41.944Z,1004.56
2018-11-01T04:32:43.398Z,1004.54
2018-11-01T04:33:43.574Z,1004.56
2018-11-01T04:34:43.418Z,1004.60
2018-11-01T04:35:43.454Z,1004.58
2018-11-01T04:36:43.435Z,1004.55
2018-11-01T04:37:43.454Z,1004.60
2018-11-01T04:38:43.498Z,1004.61
2018-11-01T04:39:43.472Z,1004.59
2018-11-01T04:40:43.642Z,1004.59
2018-11-01T04:41:43.517Z,1004.55
2018-11-01T04:42:43.465Z,1004.54
2018-11-01T04:43:43.509Z,1004.53
2018-11-01T04:44:43.513Z,1004.49
2018-11-01T04:45:41.544Z,1004.46
2018-11-01T04:46:43.455Z,1004.46
2018-11-01T04:47:43.578Z,1004.40
2018-11-01T04:48:41.993Z,1004.46
2018-11-01T04:49:43.478Z,1004.48
2018-11-01T04:50:42.071Z,1004.46
2018-11-01T04:51:41.105Z,1004.47
2018-11-01T04:52:41.366Z,1004.45
2018-11-01T04:53:41.851Z,1004.41
2018-11-01T04:54:41.915Z,1004.35
2018-11-01T04:55:41.904Z,1004.36
2018-11-01T04:56:42.471Z,1004.31
2018-11-01T04:57:41.573Z,1004.36
2018-11-01T04:58:42.372Z,1004.35
2018-11-01T04:59:41.199Z,1004.38
2018-11-01T05:00:41.705Z,1004.36
2018-11-01T05:01:41.944Z,1004.35
2018-11-01T05:02:42.074Z,1004.36
2018-11-01T05:03:41.178Z,1004.36
2018-11-01T05:04:41.926Z,1004.33
2018-11-01T05:05:42.076Z,1004.31
2018-11-01T05:06:42.119Z,1004.37
2018-11-01T05:07:41.936Z,1004.37
2018-11-01T05:08:41.909Z,1004.40
2018-11-01T05:09:41.984Z,1004.43
2018-11-01T05:10:41.977Z,1004.50
2018-11-01T05:11:42.363Z,1004.53
2018-11-01T05:12:41.594Z,1004.57
2018-11-01T05:13:41.632Z,1004.56
2018-11-01T05:14:41.756Z,1004.52
2018-11-01T05:15:42.075Z,1004.58
2018-11-01T05:16:42.382Z,1004.59
2018-11-01T05:17:41.938Z,1004.57
2018-11-01T05:18:42.035Z,1004.56
2018-11-01T05:19:41.955Z,1004.60
2018-11-01T05:20:42.145Z,1004.62
2018-11-01T05:21:41.988Z,1004.61
2018-11-01T05:22:41.576Z,1004.62
2018-11-01T05:23:41.217Z,1004.65
2018-11-01T05:24:41.659Z,1004.65
2018-11-01T05:25:41.576Z,1004.65
2018-11-01T05:26:41.525Z,1004.62
2018-11-01T05:27:41.756Z,1004.60
2018-11-01T05:28:41.090Z,1004.62
2018-11-01T05:29:41.462Z,1004.61
2018-11-01T05:30:41.956Z,1004.61
2018-11-01T05:31:41.953Z,1004.61
2018-11-01T05:32:41.920Z,1004.62
2018-11-01T05:33:41.681Z,1004.66
2018-11-01T05:34:41.879Z,1004.67
2018-11-01T05:35:41.948Z,1004.64
2018-11-01T05:36:41.883Z,1004.67
2018-11-01T05:37:41.711Z,1004.73
2018-11-01T05:38:42.078Z,1004.66
2018-11-01T05:39:41.926Z,1004.73
2018-11-01T05:40:42.281Z,1004.76
2018-11-01T05:41:41.868Z,1004.70
2018-11-01T05:42:41.922Z,1004.71
2018-11-01T05:43:42.105Z,1004.66
2018-11-01T05:44:41.592Z,1004.68
2018-11-01T05:45:41.634Z,1004.67
2018-11-01T05:46:41.526Z,1004.67
2018-11-01T05:47:41.212Z,1004.65
2018-11-01T05:48:41.755Z,1004.68
2018-11-01T05:49:41.725Z,1004.68
2018-11-01T05:50:41.766Z,1004.66
2018-11-01T05:51:41.529Z,1004.69
2018-11-01T05:52:41.964Z,1004.64
2018-11-01T05:53:40.989Z,1004.59
2018-11-01T05:54:40.958Z,1004.52
2018-11-01T05:55:41.359Z,1004.52
2018-11-01T05:56:40.917Z,1004.51
2018-11-01T05:57:41.534Z,1004.45
2018-11-01T05:58:41.369Z,1004.50
2018-11-01T05:59:41.351Z,1004.50
2018-11-01T06:00:40.928Z,1004.51
2018-11-01T06:01:41.527Z,1004.51
2018-11-01T06:02:41.453Z,1004.54
2018-11-01T06:03:41.823Z,1004.47
2018-11-01T06:04:41.461Z,1004.51
2018-11-01T06:05:41.680Z,1004.48
2018-11-01T06:06:41.628Z,1004.48
2018-11-01T06:07:41.985Z,1004.56
2018-11-01T06:08:41.486Z,1004.55
2018-11-01T06:09:41.004Z,1004.51
2018-11-01T06:10:41.694Z,1004.52
2018-11-01T06:11:41.779Z,1004.53
2018-11-01T06:12:41.534Z,1004.54
2018-11-01T06:13:41.327Z,1004.53
2018-11-01T06:14:41.282Z,1004.52
2018-11-01T06:15:41.347Z,1004.53
2018-11-01T06:16:41.632Z,1004.53
2018-11-01T06:17:41.336Z,1004.52
2018-11-01T06:18:41.329Z,1004.53
2018-11-01T06:19:41.363Z,1004.57
2018-11-01T06:20:41.502Z,1004.57
2018-11-01T06:21:41.352Z,1004.56
2018-11-01T06:22:41.355Z,1004.59
2018-11-01T06:23:41.044Z,1004.64
2018-11-01T06:24:41.562Z,1004.67
2018-11-01T06:25:41.891Z,1004.71
2018-11-01T06:26:41.402Z,1004.74
2018-11-01T06:27:43.190Z,1004.82
2018-11-01T06:28:43.035Z,1004.80
2018-11-01T06:29:41.534Z,1004.83
2018-11-01T06:30:41.135Z,1004.86
2018-11-01T06:31:43.148Z,1004.82
2018-11-01T06:32:40.825Z,1004.93
2018-11-01T06:33:41.300Z,1004.96
2018-11-01T06:34:43.391Z,1004.93
2018-11-01T06:35:41.401Z,1004.93
2018-11-01T06:36:42.981Z,1004.92
2018-11-01T06:37:43.004Z,1004.93
2018-11-01T06:38:42.938Z,1004.94
2018-11-01T06:39:43.006Z,1004.89
2018-11-01T06:40:43.373Z,1004.86
2018-11-01T06:41:41.086Z,1004.90
2018-11-01T06:42:43.024Z,1004.89
2018-11-01T06:43:42.970Z,1004.88
2018-11-01T06:44:41.461Z,1004.94
2018-11-01T06:45:41.150Z,1004.94
2018-11-01T06:46:40.932Z,1004.90
2018-11-01T06:47:41.438Z,1004.89
2018-11-01T06:48:41.447Z,1004.86
2018-11-01T06:49:41.469Z,1004.89
2018-11-01T06:50:41.341Z,1004.89
2018-11-01T06:51:40.835Z,1004.88
2018-11-01T06:52:41.382Z,1004.95
2018-11-01T06:53:41.343Z,1004.94
2018-11-01T06:54:41.286Z,1004.93
2018-11-01T06:55:41.252Z,1004.95
2018-11-01T06:56:41.597Z,1004.97
2018-11-01T06:57:41.349Z,1004.98
2018-11-01T06:58:40.678Z,1004.95
2018-11-01T06:59:41.016Z,1005.01
2018-11-01T07:00:40.936Z,1004.98
2018-11-01T07:01:41.023Z,1005.01
2018-11-01T07:02:40.667Z,1004.99
2018-11-01T07:03:41.035Z,1005.01
2018-11-01T07:04:40.660Z,1004.98
2018-11-01T07:05:41.386Z,1004.99
2018-11-01T07:06:41.884Z,1005.00
2018-11-01T07:07:41.349Z,1005.04
2018-11-01T07:08:40.949Z,1005.02
2018-11-01T07:09:40.911Z,1005.03
2018-11-01T07:10:41.048Z,1005.02
2018-11-01T07:11:41.157Z,1005.00
2018-11-01T07:12:41.094Z,1005.02
2018-11-01T07:13:41.097Z,1004.98
2018-11-01T07:14:41.111Z,1005.00
2018-11-01T07:15:41.101Z,1004.96
2018-11-01T07:16:41.074Z,1004.98
2018-11-01T07:17:41.317Z,1004.97
2018-11-01T07:18:41.280Z,1005.00
2018-11-01T07:19:41.050Z,1004.96
2018-11-01T07:20:41.470Z,1004.92
2018-11-01T07:21:41.199Z,1004.93
2018-11-01T07:22:41.600Z,1004.94
2018-11-01T07:23:40.838Z,1004.95
2018-11-01T07:24:40.624Z,1004.91
2018-11-01T07:25:42.991Z,1004.88
2018-11-01T07:26:41.274Z,1004.92
2018-11-01T07:27:40.878Z,1004.86
2018-11-01T07:28:40.883Z,1004.83
2018-11-01T07:29:40.902Z,1004.83
2018-11-01T07:30:41.144Z,1004.82
2018-11-01T07:31:40.956Z,1004.77
2018-11-01T07:32:41.023Z,1004.81
2018-11-01T07:33:40.862Z,1004.68
2018-11-01T07:34:41.102Z,1004.66
2018-11-01T07:35:41.475Z,1004.68
2018-11-01T07:36:41.385Z,1004.67
2018-11-01T07:37:40.896Z,1004.62
2018-11-01T07:38:41.333Z,1004.58
2018-11-01T07:39:40.890Z,1004.60
2018-11-01T07:40:41.097Z,1004.57
2018-11-01T07:41:41.297Z,1004.62
2018-11-01T07:42:41.483Z,1004.55
2018-11-01T07:43:41.361Z,1004.60
2018-11-01T07:44:41.333Z,1004.55
